Time;durP1;ratioP1;P1;durP2;ratioP2;P2;SDS_P1;SDS_P2;PMS_P1;PMS_P2;Temp;Humidity;BMP_temperature;BMP_pressure;BME280_temperature;BME280_humidity;BME280_pressure;Samples;Min_cycle;Max_cycle;Signal;HPM_P1;HPM_P2
2022/07/05 00:06:00;;;;;;;4.95;0.80;;;;;;;18.77;60.41;100635.94;20992484;28;20047;-68
2022/07/05 00:16:02;;;;;;;5.25;1.08;;;;;;;18.85;59.57;100647.06;20992381;28;20075;-68
2022/07/05 00:26:04;;;;;;;3.17;0.70;;;;;;;18.79;60.83;100645.56;20992317;28;20053;-68
2022/07/05 00:36:05;;;;;;;3.08;1.00;;;;;;;18.59;64.36;100648.22;20991526;28;20707;-68
2022/07/05 00:46:07;;;;;;;4.70;0.95;;;;;;;18.51;64.65;100650.38;20991629;28;20045;-67
2022/07/05 00:56:10;;;;;;;3.80;0.93;;;;;;;18.07;68.39;100640.78;20989634;28;20489;-67
2022/07/05 01:06:13;;;;;;;3.80;1.08;;;;;;;18.04;69.72;100648.84;20988038;28;20378;-67
2022/07/05 01:16:15;;;;;;;4.32;1.75;;;;;;;17.84;72.49;100656.78;20987876;28;20078;-68
2022/07/05 01:26:17;;;;;;;2.05;0.85;;;;;;;17.49;76.49;100664.34;20987457;28;20052;-68
2022/07/05 01:36:19;;;;;;;2.70;1.00;;;;;;;17.48;77.02;100667.91;20985707;28;20052;-68
2022/07/05 01:46:23;;;;;;;2.80;0.98;;;;;;;17.31;80.93;100665.06;20985933;28;20064;-67
2022/07/05 01:56:25;;;;;;;3.60;1.58;;;;;;;17.12;85.81;100671.06;20985169;28;20288;-68
2022/07/05 02:06:26;;;;;;;3.83;1.10;;;;;;;16.92;89.69;100666.56;20983149;28;20423;-67
2022/07/05 02:16:28;;;;;;;4.13;1.10;;;;;;;16.56;90.48;100666.06;20984048;28;20044;-67
2022/07/05 02:26:30;;;;;;;2.45;0.95;;;;;;;16.55;91.14;100669.66;20984135;28;20082;-67
2022/07/05 02:36:32;;;;;;;3.85;1.45;;;;;;;16.45;91.72;100673.53;20983021;28;20452;-67
2022/07/05 02:46:33;;;;;;;4.47;1.35;;;;;;;16.12;94.71;100676.44;20982641;28;20063;-67
2022/07/05 02:56:35;;;;;;;3.55;1.30;;;;;;;15.84;97.06;100691.47;20982660;28;20049;-67
2022/07/05 03:06:37;;;;;;;2.92;1.20;;;;;;;15.76;97.75;100680.28;20981286;28;20139;-67
2022/07/05 03:16:39;;;;;;;5.63;1.55;;;;;;;15.70;98.30;100691.06;20991287;28;20052;-67
2022/07/05 03:26:41;;;;;;;2.78;1.40;;;;;;;15.65;100.00;100685.94;20997375;28;20409;-67
2022/07/05 03:36:43;;;;;;;4.05;1.58;;;;;;;15.54;100.00;100686.25;20995217;28;20045;-67
2022/07/05 03:46:44;;;;;;;5.10;1.70;;;;;;;15.56;100.00;100687.03;20995642;28;20055;-67
2022/07/05 03:56:50;;;;;;;3.95;1.52;;;;;;;15.50;100.00;100703.09;20995279;28;20484;-67
2022/07/05 04:06:52;;;;;;;4.18;1.80;;;;;;;15.52;100.00;100717.13;20993588;28;20045;-67
2022/07/05 04:16:53;;;;;;;5.43;1.80;;;;;;;15.61;100.00;100727.34;20993534;28;20513;-67
2022/07/05 04:26:55;;;;;;;4.22;1.85;;;;;;;15.80;100.00;100726.81;20992547;28;20053;-67
2022/07/05 04:36:57;;;;;;;7.45;2.22;;;;;;;16.58;96.98;100738.28;20991071;28;20523;-67
2022/07/05 04:46:59;;;;;;;4.15;1.40;;;;;;;18.01;81.35;100749.66;20990999;28;20045;-67
2022/07/05 04:57:00;;;;;;;3.65;1.50;;;;;;;17.98;81.80;100751.59;20966484;28;20077;-67
2022/07/05 05:07:02;;;;;;;2.88;1.33;;;;;;;17.35;87.77;100754.88;20825700;28;20422;-67
2022/07/05 05:17:03;;;;;;;5.82;1.85;;;;;;;17.43;87.70;100759.88;20823319;28;20053;-67
2022/07/05 05:27:05;;;;;;;7.35;2.15;;;;;;;17.78;84.86;100757.69;20822854;28;20050;-67
2022/07/05 05:37:06;;;;;;;3.42;1.67;;;;;;;18.18;80.88;100763.09;20820902;28;20405;-68
2022/07/05 05:47:08;;;;;;;2.90;1.40;;;;;;;18.34;76.47;100771.25;20822320;28;20064;-68
2022/07/05 05:57:16;;;;;;;3.00;1.30;;;;;;;18.61;73.97;100779.84;20821146;28;20057;-67
2022/07/05 06:07:18;;;;;;;2.97;1.33;;;;;;;19.08;71.97;100784.03;20819478;28;20045;-73
2022/07/05 06:17:19;;;;;;;3.67;1.40;;;;;;;19.38;65.43;100787.06;20818936;28;20049;-73
2022/07/05 06:27:21;;;;;;;4.63;1.30;;;;;;;19.48;65.18;100793.69;20819571;28;20782;-75
2022/07/05 06:37:22;;;;;;;3.53;1.10;;;;;;;19.67;61.69;100794.56;20817206;28;20491;-72
2022/07/05 06:47:24;;;;;;;4.72;1.20;;;;;;;19.78;59.44;100798.50;20872449;28;20397;-73
2022/07/05 06:57:25;;;;;;;3.70;1.50;;;;;;;20.09;59.26;100801.44;20958346;28;20045;-72
2022/07/05 07:17:52;;;;;;;5.25;1.80;;;;;;;20.72;57.15;100811.63;20944709;28;20448;-72
2022/07/05 07:27:55;;;;;;;5.55;1.08;;;;;;;20.86;53.54;100803.78;20915719;28;20048;-72
2022/07/05 07:37:56;;;;;;;6.10;1.23;;;;;;;21.38;50.25;100816.19;20923453;28;20056;-70
2022/07/05 07:47:58;;;;;;;5.90;1.48;;;;;;;21.59;50.33;100820.31;20898421;28;20057;-74
2022/07/05 07:57:59;;;;;;;3.47;1.20;;;;;;;21.65;51.02;100825.31;20898223;28;20049;-69
2022/07/05 08:08:01;;;;;;;4.65;1.50;;;;;;;21.71;50.07;100825.00;20901053;28;20409;-69
2022/07/05 08:28:24;;;;;;;5.65;1.38;;;;;;;22.62;50.04;100812.69;20901440;28;20075;-71
2022/07/05 08:38:25;;;;;;;5.43;1.38;;;;;;;22.89;49.27;100806.69;20899628;28;20095;-71
2022/07/05 08:48:28;;;;;;;4.65;1.30;;;;;;;22.84;47.30;100808.72;20899252;28;20055;-71
2022/07/05 08:58:30;;;;;;;5.50;1.42;;;;;;;23.18;44.45;100797.72;20896756;28;20088;-70
2022/07/05 09:08:38;;;;;;;4.63;0.95;;;;;;;23.56;43.54;100787.31;20895175;28;20415;-71
2022/07/05 09:18:48;;;;;;;3.05;0.93;;;;;;;23.83;42.05;100786.53;20973153;28;20058;-72
2022/07/05 09:28:54;;;;;;;4.70;1.63;;;;;;;24.11;42.34;100800.78;20978147;28;20051;-71
2022/07/05 09:38:56;;;;;;;4.50;1.20;;;;;;;24.83;41.51;100795.00;20976943;28;20053;-71
2022/07/05 09:48:58;;;;;;;4.32;1.00;;;;;;;25.57;39.09;100787.13;20972259;28;20060;-70
2022/07/05 09:59:14;;;;;;;3.15;1.00;;;;;;;25.13;38.93;100790.31;20888810;28;20052;-71
2022/07/05 10:09:17;;;;;;;2.17;0.90;;;;;;;25.28;37.75;100782.03;20892629;28;20481;-75
2022/07/05 10:19:21;;;;;;;3.33;0.90;;;;;;;25.70;36.32;100769.19;20975466;28;20151;-71
2022/07/05 10:29:23;;;;;;;;;;;;;;;26.03;35.21;100784.66;20975892;28;20052;-72
2022/07/05 10:39:25;;;;;;;3.70;1.00;;;;;;;27.01;35.73;100768.25;20974140;28;19974;-72
2022/07/05 10:49:29;;;;;;;3.28;1.20;;;;;;;25.93;39.00;100780.97;20974572;28;20049;-72
2022/07/05 11:00:12;;;;;;;6.80;1.25;;;;;;;25.65;38.43;100776.72;20930034;28;20483;-73
2022/07/05 11:10:13;;;;;;;3.38;0.90;;;;;;;25.12;38.31;100767.16;20821956;28;20049;-72
2022/07/05 11:20:30;;;;;;;4.80;1.30;;;;;;;25.28;37.94;100760.59;20973331;28;20091;-72
2022/07/05 11:30:45;;;;;;;2.60;0.88;;;;;;;25.42;40.00;100764.13;20973890;28;20493;-72
2022/07/05 11:40:46;;;;;;;5.57;1.40;;;;;;;25.52;38.68;100754.44;20987263;28;20063;-73
2022/07/05 11:50:49;;;;;;;4.72;1.20;;;;;;;25.26;37.90;100746.47;20987653;28;20051;-72
2022/07/05 12:00:56;;;;;;;4.03;1.00;;;;;;;25.80;36.49;100738.06;20985530;28;20124;-73
2022/07/05 12:21:22;;;;;;;2.28;1.00;;;;;;;26.09;34.18;100714.44;20902003;28;20084;-71
2022/07/05 12:31:24;;;;;;;2.15;0.90;;;;;;;26.52;33.29;100711.16;20899046;28;20045;-71
2022/07/05 12:41:25;;;;;;;2.38;0.70;;;;;;;27.24;31.83;100696.56;20900571;28;20053;-71
2022/07/05 12:51:33;;;;;;;2.40;0.77;;;;;;;26.63;32.99;100702.25;20899299;28;20056;-71
2022/07/05 13:01:40;;;;;;;3.72;0.80;;;;;;;27.77;31.17;100683.28;20898484;28;20079;-71
2022/07/05 13:11:43;;;;;;;3.55;1.00;;;;;;;28.52;30.52;100676.94;20917185;28;20056;-75
2022/07/05 13:21:44;;;;;;;1.83;0.80;;;;;;;28.56;29.35;100673.84;20980256;28;20049;-72
2022/07/05 13:31:46;;;;;;;3.28;0.98;;;;;;;27.51;30.71;100675.50;20978749;28;20536;-71
2022/07/05 13:41:49;;;;;;;5.03;1.05;;;;;;;26.98;30.81;100682.53;20978187;28;20048;-71
2022/07/05 13:51:51;;;;;;;4.73;0.93;;;;;;;27.34;31.59;100684.94;20978044;28;20066;-71
2022/07/05 14:01:52;;;;;;;1.90;1.00;;;;;;;26.91;31.44;100681.28;20976666;28;20060;-74
2022/07/05 14:11:54;;;;;;;2.22;1.10;;;;;;;26.35;32.00;100674.88;20956362;28;20486;-72
2022/07/05 14:21:55;;;;;;;2.78;0.80;;;;;;;26.89;30.74;100669.81;20893757;28;20416;-73
2022/07/05 14:31:57;;;;;;;4.30;0.93;;;;;;;27.23;30.33;100654.53;20892441;28;20045;-68
2022/07/05 14:41:59;;;;;;;3.63;0.95;;;;;;;27.77;30.16;100648.31;20891470;28;20140;-67
2022/07/05 14:52:00;;;;;;;4.22;1.10;;;;;;;27.08;29.98;100641.38;20899559;28;20048;-68
2022/07/05 15:02:03;;;;;;;4.18;0.85;;;;;;;27.87;28.44;100633.94;20890614;28;20068;-68
2022/07/05 15:12:05;;;;;;;5.22;0.98;;;;;;;27.68;29.24;100625.66;20914657;28;20131;-68
2022/07/05 15:22:09;;;;;;;5.80;1.00;;;;;;;28.19;27.50;100614.19;20906550;28;20053;-68
2022/07/05 15:32:11;;;;;;;5.40;1.00;;;;;;;28.15;27.03;100609.19;20905441;28;20072;-68
2022/07/05 15:42:15;;;;;;;2.28;1.20;;;;;;;28.55;25.44;100595.81;20904414;28;20075;-68
2022/07/05 15:52:17;;;;;;;5.10;1.10;;;;;;;29.02;25.23;100582.69;20903917;28;20076;-68
2022/07/05 16:02:19;;;;;;;2.95;1.50;;;;;;;29.32;24.58;100585.31;20902526;28;20045;-67
2022/07/05 16:12:20;;;;;;;3.80;0.90;;;;;;;29.48;23.32;100576.66;20917505;28;20060;-68
2022/07/05 16:22:22;;;;;;;2.53;1.08;;;;;;;29.23;24.46;100583.44;20984648;28;20060;-68
2022/07/05 16:32:23;;;;;;;2.85;0.82;;;;;;;28.73;23.74;100583.44;20984693;28;20048;-68
2022/07/05 16:42:25;;;;;;;1.98;1.08;;;;;;;28.96;23.76;100584.09;20983820;28;20462;-68
2022/07/05 16:52:26;;;;;;;2.67;0.90;;;;;;;28.49;25.20;100577.53;20981755;28;20056;-68
2022/07/05 17:02:28;;;;;;;3.55;1.10;;;;;;;27.47;26.57;100587.13;20980773;28;20044;-67
2022/07/05 17:12:30;;;;;;;1.95;0.88;;;;;;;27.64;26.35;100589.25;20955332;28;20493;-67
2022/07/05 17:22:32;;;;;;;2.25;0.90;;;;;;;27.40;27.00;100591.31;20888423;28;20055;-67
2022/07/05 17:32:33;;;;;;;2.42;0.80;;;;;;;27.99;26.92;100588.13;20891162;28;20044;-67
2022/07/05 17:42:35;;;;;;;2.92;0.85;;;;;;;27.80;26.79;100589.72;20895521;28;20064;-67
2022/07/05 17:52:36;;;;;;;2.33;1.15;;;;;;;27.87;25.90;100600.78;20894231;28;20037;-67
2022/07/05 18:02:38;;;;;;;3.65;0.90;;;;;;;27.84;26.59;100603.75;20892650;28;20053;-66
2022/07/05 18:12:39;;;;;;;2.00;0.80;;;;;;;27.68;26.98;100606.84;20923783;28;20418;-66
2022/07/05 18:22:41;;;;;;;2.60;0.93;;;;;;;27.28;28.31;100603.94;20893060;28;20049;-67
2022/07/05 18:32:42;;;;;;;4.70;1.10;;;;;;;27.21;28.84;100608.94;20892094;28;20434;-67
2022/07/05 18:42:44;;;;;;;2.92;1.02;;;;;;;26.87;29.72;100605.44;20897879;28;20474;-69
2022/07/05 18:52:46;;;;;;;3.45;1.10;;;;;;;26.29;31.99;100620.78;20919234;28;20044;-68
2022/07/05 19:02:47;;;;;;;2.05;1.10;;;;;;;25.58;33.91;100630.63;20917860;28;20055;-67
2022/07/05 19:23:09;;;;;;;3.90;1.10;;;;;;;24.56;36.38;100637.09;21001771;28;20051;-69
2022/07/05 19:33:11;;;;;;;4.40;1.05;;;;;;;24.10;37.93;100650.13;21000745;28;20048;-67
2022/07/05 19:43:14;;;;;;;5.93;1.17;;;;;;;23.75;37.33;100652.47;20999795;28;20049;-67
2022/07/05 19:53:16;;;;;;;1.98;1.08;;;;;;;23.54;38.35;100665.41;20959834;28;20497;-67
2022/07/05 20:03:18;;;;;;;3.40;1.30;;;;;;;23.14;41.98;100681.38;20901530;28;20041;-66
2022/07/05 20:13:20;;;;;;;2.17;1.25;;;;;;;22.50;45.21;100717.34;20935439;28;20049;-66
2022/07/05 20:23:22;;;;;;;4.47;1.58;;;;;;;22.10;46.71;100741.03;20985125;28;20059;-66
2022/07/05 20:33:23;;;;;;;4.18;2.13;;;;;;;22.12;46.78;100744.47;20983990;28;20049;-67
2022/07/05 20:43:26;;;;;;;4.75;1.70;;;;;;;21.93;48.67;100763.31;20983576;28;20045;-67
2022/07/05 20:53:28;;;;;;;9.40;1.98;;;;;;;21.89;49.51;100768.91;20983237;28;20397;-68
2022/07/05 21:03:29;;;;;;;5.63;1.80;;;;;;;21.72;49.23;100785.88;20980289;28;20059;-68
2022/07/05 21:13:31;;;;;;;6.70;1.83;;;;;;;21.56;49.30;100803.63;20946973;28;20055;-67
2022/07/05 21:23:32;;;;;;;5.65;2.03;;;;;;;21.40;49.54;100822.28;20897572;28;20498;-67
2022/07/05 21:33:34;;;;;;;4.90;1.90;;;;;;;21.25;49.86;100837.25;20917853;28;20043;-67
2022/07/05 21:43:37;;;;;;;3.70;1.88;;;;;;;20.97;51.38;100849.31;20934878;28;20036;-67
2022/07/05 21:53:39;;;;;;;5.22;1.63;;;;;;;20.72;52.64;100860.38;20934762;28;20049;-67
2022/07/05 22:14:00;;;;;;;5.18;1.88;;;;;;;20.44;52.22;100871.50;20896685;28;20067;-67
2022/07/05 22:24:02;;;;;;;6.05;1.75;;;;;;;20.31;53.05;100881.00;20901220;28;20056;-68
2022/07/05 22:34:04;;;;;;;5.43;1.67;;;;;;;20.19;54.07;100890.44;20900597;28;20475;-69
2022/07/05 22:44:05;;;;;;;4.97;1.77;;;;;;;20.05;54.87;100905.31;20900151;28;20049;-68
2022/07/05 22:54:07;;;;;;;5.78;1.90;;;;;;;19.82;56.11;100915.22;20900163;28;20045;-69
2022/07/05 23:04:08;;;;;;;5.85;1.85;;;;;;;19.79;55.59;100919.84;20899180;28;20199;-68
2022/07/05 23:14:10;;;;;;;4.13;1.60;;;;;;;19.61;58.21;100935.66;20899220;28;20057;-69
2022/07/05 23:34:31;;;;;;;4.28;1.80;;;;;;;19.08;60.16;100956.56;20908658;28;20076;-69
2022/07/05 23:44:33;;;;;;;6.47;2.03;;;;;;;18.92;62.51;100958.97;20913763;28;20486;-71
2022/07/05 23:54:35;;;;;;;4.93;2.00;;;;;;;18.69;65.05;100962.56;20912468;28;20052;-70
